sensor_id;sensor_type;location;lat;lon;timestamp;temperature;humidity
46159;DHT22;74657;45.650;25.590;2024-02-21T00:00:36;4.60;99.90
46159;DHT22;74657;45.650;25.590;2024-02-21T00:03:04;4.60;99.90
46159;DHT22;74657;45.650;25.590;2024-02-21T00:05:26;4.50;99.90
46159;DHT22;74657;45.650;25.590;2024-02-21T00:07:49;4.50;99.90
46159;DHT22;74657;45.650;25.590;2024-02-21T00:10:13;4.50;99.90
46159;DHT22;74657;45.650;25.590;2024-02-21T00:12:36;4.50;99.90
46159;DHT22;74657;45.650;25.590;2024-02-21T00:15:00;4.40;99.90
46159;DHT22;74657;45.650;25.590;2024-02-21T00:17:23;4.40;99.90
46159;DHT22;74657;45.650;25.590;2024-02-21T00:19:49;4.30;99.90
46159;DHT22;74657;45.650;25.590;2024-02-21T00:22:12;4.20;99.90
46159;DHT22;74657;45.650;25.590;2024-02-21T00:24:35;4.20;99.90
46159;DHT22;74657;45.650;25.590;2024-02-21T00:26:59;4.10;99.90
46159;DHT22;74657;45.650;25.590;2024-02-21T00:29:22;4.00;99.90
46159;DHT22;74657;45.650;25.590;2024-02-21T00:31:45;3.90;99.90
46159;DHT22;74657;45.650;25.590;2024-02-21T00:34:09;3.80;99.90
46159;DHT22;74657;45.650;25.590;2024-02-21T00:36:34;3.70;99.90
46159;DHT22;74657;45.650;25.590;2024-02-21T00:38:57;3.70;99.90
46159;DHT22;74657;45.650;25.590;2024-02-21T00:41:20;3.70;99.90
46159;DHT22;74657;45.650;25.590;2024-02-21T00:43:43;3.70;99.90
46159;DHT22;74657;45.650;25.590;2024-02-21T00:46:07;3.70;99.90
46159;DHT22;74657;45.650;25.590;2024-02-21T00:48:30;3.70;99.90
46159;DHT22;74657;45.650;25.590;2024-02-21T00:50:54;3.70;99.90
46159;DHT22;74657;45.650;25.590;2024-02-21T00:53:18;3.70;99.90
46159;DHT22;74657;45.650;25.590;2024-02-21T00:55:41;3.80;99.90
46159;DHT22;74657;45.650;25.590;2024-02-21T00:58:05;3.80;99.90
46159;DHT22;74657;45.650;25.590;2024-02-21T01:00:29;3.90;99.90
46159;DHT22;74657;45.650;25.590;2024-02-21T01:02:52;3.90;99.90
46159;DHT22;74657;45.650;25.590;2024-02-21T01:05:15;4.00;99.90
46159;DHT22;74657;45.650;25.590;2024-02-21T01:07:38;4.00;99.90
46159;DHT22;74657;45.650;25.590;2024-02-21T01:10:04;4.00;99.90
46159;DHT22;74657;45.650;25.590;2024-02-21T01:12:28;4.10;99.90
46159;DHT22;74657;45.650;25.590;2024-02-21T01:14:51;4.10;99.90
46159;DHT22;74657;45.650;25.590;2024-02-21T01:17:14;4.10;99.90
46159;DHT22;74657;45.650;25.590;2024-02-21T01:19:38;4.10;99.90
46159;DHT22;74657;45.650;25.590;2024-02-21T01:22:02;4.10;99.90
46159;DHT22;74657;45.650;25.590;2024-02-21T01:24:25;4.10;99.90
46159;DHT22;74657;45.650;25.590;2024-02-21T01:26:49;4.10;99.90
46159;DHT22;74657;45.650;25.590;2024-02-21T01:29:12;4.10;99.90
46159;DHT22;74657;45.650;25.590;2024-02-21T01:31:35;4.10;99.90
46159;DHT22;74657;45.650;25.590;2024-02-21T01:33:59;4.10;99.90
46159;DHT22;74657;45.650;25.590;2024-02-21T01:36:22;4.10;99.90
46159;DHT22;74657;45.650;25.590;2024-02-21T01:38:45;4.10;99.90
46159;DHT22;74657;45.650;25.590;2024-02-21T01:41:08;4.10;99.90
46159;DHT22;74657;45.650;25.590;2024-02-21T01:43:33;4.10;99.90
46159;DHT22;74657;45.650;25.590;2024-02-21T01:45:57;4.10;99.90
46159;DHT22;74657;45.650;25.590;2024-02-21T01:48:22;4.10;99.90
46159;DHT22;74657;45.650;25.590;2024-02-21T01:50:46;4.10;99.90
46159;DHT22;74657;45.650;25.590;2024-02-21T01:53:10;4.10;99.90
46159;DHT22;74657;45.650;25.590;2024-02-21T01:55:39;4.10;99.90
46159;DHT22;74657;45.650;25.590;2024-02-21T01:58:04;4.10;99.90
46159;DHT22;74657;45.650;25.590;2024-02-21T02:00:30;4.10;99.90
46159;DHT22;74657;45.650;25.590;2024-02-21T02:02:54;4.10;99.90
46159;DHT22;74657;45.650;25.590;2024-02-21T02:05:18;4.10;99.90
46159;DHT22;74657;45.650;25.590;2024-02-21T02:07:42;4.10;99.90
46159;DHT22;74657;45.650;25.590;2024-02-21T02:10:07;4.00;99.90
46159;DHT22;74657;45.650;25.590;2024-02-21T02:12:32;4.00;99.90
46159;DHT22;74657;45.650;25.590;2024-02-21T02:14:59;4.00;99.90
46159;DHT22;74657;45.650;25.590;2024-02-21T02:17:24;4.00;99.90
46159;DHT22;74657;45.650;25.590;2024-02-21T02:19:47;4.00;99.90
46159;DHT22;74657;45.650;25.590;2024-02-21T02:22:14;4.00;99.90
46159;DHT22;74657;45.650;25.590;2024-02-21T02:24:40;4.00;99.90
46159;DHT22;74657;45.650;25.590;2024-02-21T02:27:03;4.00;99.90
46159;DHT22;74657;45.650;25.590;2024-02-21T02:29:27;3.90;99.90
46159;DHT22;74657;45.650;25.590;2024-02-21T02:31:50;4.00;99.90
46159;DHT22;74657;45.650;25.590;2024-02-21T02:34:13;3.90;99.90
46159;DHT22;74657;45.650;25.590;2024-02-21T02:36:37;3.90;99.90
46159;DHT22;74657;45.650;25.590;2024-02-21T02:39:00;3.80;99.90
46159;DHT22;74657;45.650;25.590;2024-02-21T02:41:25;3.60;99.90
46159;DHT22;74657;45.650;25.590;2024-02-21T02:43:48;3.40;99.90
46159;DHT22;74657;45.650;25.590;2024-02-21T02:46:12;3.30;99.90
46159;DHT22;74657;45.650;25.590;2024-02-21T02:48:35;3.10;99.90
46159;DHT22;74657;45.650;25.590;2024-02-21T02:51:00;2.90;99.90
46159;DHT22;74657;45.650;25.590;2024-02-21T02:53:24;2.80;99.90
46159;DHT22;74657;45.650;25.590;2024-02-21T02:55:47;2.70;99.90
46159;DHT22;74657;45.650;25.590;2024-02-21T02:58:12;2.60;99.90
46159;DHT22;74657;45.650;25.590;2024-02-21T03:00:35;2.60;99.90
46159;DHT22;74657;45.650;25.590;2024-02-21T03:03:00;2.50;99.90
46159;DHT22;74657;45.650;25.590;2024-02-21T03:05:25;2.40;99.90
46159;DHT22;74657;45.650;25.590;2024-02-21T03:07:49;2.30;99.90
46159;DHT22;74657;45.650;25.590;2024-02-21T03:10:12;2.30;99.90
46159;DHT22;74657;45.650;25.590;2024-02-21T03:12:39;2.30;99.90
46159;DHT22;74657;45.650;25.590;2024-02-21T03:15:05;2.20;99.90
46159;DHT22;74657;45.650;25.590;2024-02-21T03:17:28;2.20;99.90
46159;DHT22;74657;45.650;25.590;2024-02-21T03:19:53;2.20;99.90
46159;DHT22;74657;45.650;25.590;2024-02-21T03:22:17;2.20;99.90
46159;DHT22;74657;45.650;25.590;2024-02-21T03:24:41;2.20;99.90
46159;DHT22;74657;45.650;25.590;2024-02-21T03:27:04;2.30;99.90
46159;DHT22;74657;45.650;25.590;2024-02-21T03:29:27;2.20;99.90
46159;DHT22;74657;45.650;25.590;2024-02-21T03:31:52;2.20;99.90
46159;DHT22;74657;45.650;25.590;2024-02-21T03:34:16;2.20;99.90
46159;DHT22;74657;45.650;25.590;2024-02-21T03:36:39;2.20;99.90
46159;DHT22;74657;45.650;25.590;2024-02-21T03:39:06;2.20;99.90
46159;DHT22;74657;45.650;25.590;2024-02-21T03:41:31;2.30;99.90
46159;DHT22;74657;45.650;25.590;2024-02-21T03:43:54;2.40;99.90
46159;DHT22;74657;45.650;25.590;2024-02-21T03:46:17;2.40;99.90
46159;DHT22;74657;45.650;25.590;2024-02-21T03:48:42;2.50;99.90
46159;DHT22;74657;45.650;25.590;2024-02-21T03:51:06;2.60;99.90
46159;DHT22;74657;45.650;25.590;2024-02-21T03:53:29;2.70;99.90
46159;DHT22;74657;45.650;25.590;2024-02-21T03:55:52;2.80;99.90
46159;DHT22;74657;45.650;25.590;2024-02-21T03:58:16;2.80;99.90
46159;DHT22;74657;45.650;25.590;2024-02-21T04:00:39;2.90;99.90
46159;DHT22;74657;45.650;25.590;2024-02-21T04:03:03;2.90;99.90
46159;DHT22;74657;45.650;25.590;2024-02-21T04:05:29;3.00;99.90
46159;DHT22;74657;45.650;25.590;2024-02-21T04:07:53;3.10;99.90
46159;DHT22;74657;45.650;25.590;2024-02-21T04:10:16;3.10;99.90
46159;DHT22;74657;45.650;25.590;2024-02-21T04:12:39;3.10;99.90
46159;DHT22;74657;45.650;25.590;2024-02-21T04:15:02;3.20;99.90
46159;DHT22;74657;45.650;25.590;2024-02-21T04:17:26;3.20;99.90
46159;DHT22;74657;45.650;25.590;2024-02-21T04:19:50;3.20;99.90
46159;DHT22;74657;45.650;25.590;2024-02-21T04:22:15;3.20;99.90
46159;DHT22;74657;45.650;25.590;2024-02-21T04:24:38;3.30;99.90
46159;DHT22;74657;45.650;25.590;2024-02-21T04:27:01;3.30;99.90
46159;DHT22;74657;45.650;25.590;2024-02-21T04:29:24;3.30;99.90
46159;DHT22;74657;45.650;25.590;2024-02-21T04:31:49;3.30;99.90
46159;DHT22;74657;45.650;25.590;2024-02-21T04:34:12;3.30;99.90
46159;DHT22;74657;45.650;25.590;2024-02-21T04:36:35;3.30;99.90
46159;DHT22;74657;45.650;25.590;2024-02-21T04:39:00;3.30;99.90
46159;DHT22;74657;45.650;25.590;2024-02-21T04:41:23;3.30;99.90
46159;DHT22;74657;45.650;25.590;2024-02-21T04:43:46;3.40;99.90
46159;DHT22;74657;45.650;25.590;2024-02-21T04:46:10;3.40;99.90
46159;DHT22;74657;45.650;25.590;2024-02-21T04:48:33;3.50;99.90
46159;DHT22;74657;45.650;25.590;2024-02-21T04:50:56;3.50;99.90
46159;DHT22;74657;45.650;25.590;2024-02-21T04:53:19;3.50;99.90
46159;DHT22;74657;45.650;25.590;2024-02-21T04:55:44;3.50;99.90
46159;DHT22;74657;45.650;25.590;2024-02-21T04:58:07;3.50;99.90
46159;DHT22;74657;45.650;25.590;2024-02-21T05:00:30;3.60;99.90
46159;DHT22;74657;45.650;25.590;2024-02-21T05:02:53;3.60;99.90
46159;DHT22;74657;45.650;25.590;2024-02-21T05:05:17;3.60;99.90
46159;DHT22;74657;45.650;25.590;2024-02-21T05:07:40;3.60;99.90
46159;DHT22;74657;45.650;25.590;2024-02-21T05:10:05;3.60;99.90
46159;DHT22;74657;45.650;25.590;2024-02-21T05:12:31;3.70;99.90
46159;DHT22;74657;45.650;25.590;2024-02-21T05:14:55;3.70;99.90
46159;DHT22;74657;45.650;25.590;2024-02-21T05:17:18;3.70;99.90
46159;DHT22;74657;45.650;25.590;2024-02-21T05:19:41;3.70;99.90
46159;DHT22;74657;45.650;25.590;2024-02-21T05:22:04;3.80;99.90
46159;DHT22;74657;45.650;25.590;2024-02-21T05:24:27;3.70;99.90
46159;DHT22;74657;45.650;25.590;2024-02-21T05:26:51;3.80;99.90
46159;DHT22;74657;45.650;25.590;2024-02-21T05:29:15;3.80;99.90
46159;DHT22;74657;45.650;25.590;2024-02-21T05:31:56;3.80;99.90
46159;DHT22;74657;45.650;25.590;2024-02-21T05:34:21;3.80;99.90
46159;DHT22;74657;45.650;25.590;2024-02-21T05:36:44;3.80;99.90
46159;DHT22;74657;45.650;25.590;2024-02-21T05:39:09;3.80;99.90
46159;DHT22;74657;45.650;25.590;2024-02-21T05:41:32;3.90;99.90
46159;DHT22;74657;45.650;25.590;2024-02-21T05:43:56;3.80;99.90
46159;DHT22;74657;45.650;25.590;2024-02-21T05:46:21;3.80;99.90
46159;DHT22;74657;45.650;25.590;2024-02-21T05:48:44;3.90;99.90
46159;DHT22;74657;45.650;25.590;2024-02-21T05:51:08;3.80;99.90
46159;DHT22;74657;45.650;25.590;2024-02-21T05:53:31;3.80;99.90
46159;DHT22;74657;45.650;25.590;2024-02-21T05:55:54;3.80;99.90
46159;DHT22;74657;45.650;25.590;2024-02-21T05:58:17;3.90;99.90
46159;DHT22;74657;45.650;25.590;2024-02-21T06:00:40;3.90;99.90
46159;DHT22;74657;45.650;25.590;2024-02-21T06:03:05;4.00;99.90
46159;DHT22;74657;45.650;25.590;2024-02-21T06:05:29;4.00;99.90
46159;DHT22;74657;45.650;25.590;2024-02-21T06:07:53;4.00;99.90
46159;DHT22;74657;45.650;25.590;2024-02-21T06:10:16;4.10;99.90
46159;DHT22;74657;45.650;25.590;2024-02-21T06:12:39;4.10;99.90
46159;DHT22;74657;45.650;25.590;2024-02-21T06:15:03;4.20;99.90
46159;DHT22;74657;45.650;25.590;2024-02-21T06:17:27;4.20;99.90
46159;DHT22;74657;45.650;25.590;2024-02-21T06:19:52;4.30;99.90
46159;DHT22;74657;45.650;25.590;2024-02-21T06:22:14;4.30;99.90
46159;DHT22;74657;45.650;25.590;2024-02-21T06:24:38;4.30;99.90
46159;DHT22;74657;45.650;25.590;2024-02-21T06:27:01;4.40;99.90
46159;DHT22;74657;45.650;25.590;2024-02-21T06:29:28;4.40;99.90
46159;DHT22;74657;45.650;25.590;2024-02-21T06:31:51;4.50;99.90
46159;DHT22;74657;45.650;25.590;2024-02-21T06:34:14;4.50;99.90
46159;DHT22;74657;45.650;25.590;2024-02-21T06:36:40;4.60;99.90
46159;DHT22;74657;45.650;25.590;2024-02-21T06:39:03;4.50;99.90
46159;DHT22;74657;45.650;25.590;2024-02-21T06:41:29;4.60;99.90
46159;DHT22;74657;45.650;25.590;2024-02-21T06:43:54;4.60;99.90
46159;DHT22;74657;45.650;25.590;2024-02-21T06:46:24;4.60;99.90
46159;DHT22;74657;45.650;25.590;2024-02-21T06:48:47;4.70;99.90
46159;DHT22;74657;45.650;25.590;2024-02-21T06:51:11;4.70;99.90
46159;DHT22;74657;45.650;25.590;2024-02-21T06:53:36;4.70;99.90
46159;DHT22;74657;45.650;25.590;2024-02-21T06:55:59;4.70;99.90
46159;DHT22;74657;45.650;25.590;2024-02-21T06:58:22;4.70;99.90
46159;DHT22;74657;45.650;25.590;2024-02-21T07:00:46;4.70;99.90
46159;DHT22;74657;45.650;25.590;2024-02-21T07:03:09;4.70;99.90
46159;DHT22;74657;45.650;25.590;2024-02-21T07:05:32;4.80;99.90
46159;DHT22;74657;45.650;25.590;2024-02-21T07:07:56;4.80;99.90
46159;DHT22;74657;45.650;25.590;2024-02-21T07:10:21;4.80;99.90
46159;DHT22;74657;45.650;25.590;2024-02-21T07:12:44;4.80;99.90
46159;DHT22;74657;45.650;25.590;2024-02-21T07:15:07;4.80;99.90
46159;DHT22;74657;45.650;25.590;2024-02-21T07:17:30;4.90;99.90
46159;DHT22;74657;45.650;25.590;2024-02-21T07:19:53;5.00;99.90
46159;DHT22;74657;45.650;25.590;2024-02-21T07:22:18;5.00;99.90
46159;DHT22;74657;45.650;25.590;2024-02-21T07:24:41;5.10;99.90
46159;DHT22;74657;45.650;25.590;2024-02-21T07:27:06;5.20;99.90
46159;DHT22;74657;45.650;25.590;2024-02-21T07:29:29;5.20;99.90
46159;DHT22;74657;45.650;25.590;2024-02-21T07:31:52;5.30;99.90
46159;DHT22;74657;45.650;25.590;2024-02-21T07:34:16;5.40;99.90
46159;DHT22;74657;45.650;25.590;2024-02-21T07:36:39;5.50;99.90
46159;DHT22;74657;45.650;25.590;2024-02-21T07:39:04;5.60;99.90
46159;DHT22;74657;45.650;25.590;2024-02-21T07:41:27;5.60;99.90
46159;DHT22;74657;45.650;25.590;2024-02-21T07:43:53;5.80;99.90
46159;DHT22;74657;45.650;25.590;2024-02-21T07:46:17;5.90;99.90
46159;DHT22;74657;45.650;25.590;2024-02-21T07:48:40;6.00;99.90
46159;DHT22;74657;45.650;25.590;2024-02-21T07:51:04;6.10;99.90
46159;DHT22;74657;45.650;25.590;2024-02-21T07:53:27;6.20;99.90
46159;DHT22;74657;45.650;25.590;2024-02-21T07:55:50;6.30;99.90
46159;DHT22;74657;45.650;25.590;2024-02-21T07:58:14;6.50;99.90
46159;DHT22;74657;45.650;25.590;2024-02-21T08:00:39;6.70;99.90
46159;DHT22;74657;45.650;25.590;2024-02-21T08:03:03;6.90;99.90
46159;DHT22;74657;45.650;25.590;2024-02-21T08:05:26;7.10;99.90
46159;DHT22;74657;45.650;25.590;2024-02-21T08:07:51;7.30;99.90
46159;DHT22;74657;45.650;25.590;2024-02-21T08:10:18;7.50;99.90
46159;DHT22;74657;45.650;25.590;2024-02-21T08:12:42;7.70;99.90
46159;DHT22;74657;45.650;25.590;2024-02-21T08:15:06;7.90;99.90
46159;DHT22;74657;45.650;25.590;2024-02-21T08:17:33;8.00;99.90
46159;DHT22;74657;45.650;25.590;2024-02-21T08:19:56;8.10;99.90
46159;DHT22;74657;45.650;25.590;2024-02-21T08:22:20;8.40;99.90
46159;DHT22;74657;45.650;25.590;2024-02-21T08:24:45;8.40;99.90
46159;DHT22;74657;45.650;25.590;2024-02-21T08:27:09;8.30;99.90
46159;DHT22;74657;45.650;25.590;2024-02-21T08:29:32;8.40;99.90
46159;DHT22;74657;45.650;25.590;2024-02-21T08:31:55;8.60;99.90
46159;DHT22;74657;45.650;25.590;2024-02-21T08:34:20;8.70;99.90
46159;DHT22;74657;45.650;25.590;2024-02-21T08:36:44;8.80;99.90
46159;DHT22;74657;45.650;25.590;2024-02-21T08:39:07;8.70;99.90
46159;DHT22;74657;45.650;25.590;2024-02-21T08:41:31;8.70;99.90
46159;DHT22;74657;45.650;25.590;2024-02-21T08:44:15;8.90;99.90
46159;DHT22;74657;45.650;25.590;2024-02-21T08:46:38;9.20;99.90
46159;DHT22;74657;45.650;25.590;2024-02-21T08:49:01;9.70;99.90
46159;DHT22;74657;45.650;25.590;2024-02-21T08:51:26;10.20;99.90
46159;DHT22;74657;45.650;25.590;2024-02-21T08:53:49;10.60;99.90
46159;DHT22;74657;45.650;25.590;2024-02-21T08:56:13;11.20;99.90
46159;DHT22;74657;45.650;25.590;2024-02-21T08:58:36;11.50;99.90
46159;DHT22;74657;45.650;25.590;2024-02-21T09:01:00;11.90;99.90
46159;DHT22;74657;45.650;25.590;2024-02-21T09:03:25;12.40;99.30
46159;DHT22;74657;45.650;25.590;2024-02-21T09:05:48;12.90;98.40
46159;DHT22;74657;45.650;25.590;2024-02-21T09:08:13;13.80;96.90
46159;DHT22;74657;45.650;25.590;2024-02-21T09:10:36;14.10;95.70
46159;DHT22;74657;45.650;25.590;2024-02-21T09:12:59;14.00;95.60
46159;DHT22;74657;45.650;25.590;2024-02-21T09:15:24;13.80;95.40
46159;DHT22;74657;45.650;25.590;2024-02-21T09:17:48;13.50;95.30
46159;DHT22;74657;45.650;25.590;2024-02-21T09:20:12;12.90;96.50
46159;DHT22;74657;45.650;25.590;2024-02-21T09:22:38;12.80;96.30
46159;DHT22;74657;45.650;25.590;2024-02-21T09:25:05;12.90;96.60
46159;DHT22;74657;45.650;25.590;2024-02-21T09:27:28;14.10;95.10
46159;DHT22;74657;45.650;25.590;2024-02-21T09:29:51;15.40;93.10
46159;DHT22;74657;45.650;25.590;2024-02-21T09:32:15;15.70;92.50
46159;DHT22;74657;45.650;25.590;2024-02-21T09:34:39;16.10;91.40
46159;DHT22;74657;45.650;25.590;2024-02-21T09:37:03;17.10;90.00
46159;DHT22;74657;45.650;25.590;2024-02-21T09:39:26;17.60;87.40
46159;DHT22;74657;45.650;25.590;2024-02-21T09:41:57;18.60;82.70
46159;DHT22;74657;45.650;25.590;2024-02-21T09:44:22;19.60;79.10
46159;DHT22;74657;45.650;25.590;2024-02-21T09:46:51;19.50;78.70
46159;DHT22;74657;45.650;25.590;2024-02-21T09:49:25;21.50;72.40
46159;DHT22;74657;45.650;25.590;2024-02-21T09:51:54;24.80;66.50
46159;DHT22;74657;45.650;25.590;2024-02-21T09:54:18;27.30;58.90
46159;DHT22;74657;45.650;25.590;2024-02-21T09:56:42;26.20;57.10
46159;DHT22;74657;45.650;25.590;2024-02-21T09:59:10;22.90;60.30
46159;DHT22;74657;45.650;25.590;2024-02-21T10:01:33;19.80;65.80
46159;DHT22;74657;45.650;25.590;2024-02-21T10:03:57;17.10;71.40
46159;DHT22;74657;45.650;25.590;2024-02-21T10:06:20;15.00;76.30
46159;DHT22;74657;45.650;25.590;2024-02-21T10:08:44;13.50;79.40
46159;DHT22;74657;45.650;25.590;2024-02-21T10:11:22;12.50;78.90
46159;DHT22;74657;45.650;25.590;2024-02-21T10:13:46;11.40;79.30
46159;DHT22;74657;45.650;25.590;2024-02-21T10:16:10;12.00;80.10
46159;DHT22;74657;45.650;25.590;2024-02-21T10:18:33;12.80;81.30
46159;DHT22;74657;45.650;25.590;2024-02-21T10:21:02;14.50;78.30
46159;DHT22;74657;45.650;25.590;2024-02-21T10:23:25;16.80;69.40
46159;DHT22;74657;45.650;25.590;2024-02-21T10:25:48;16.20;69.50
46159;DHT22;74657;45.650;25.590;2024-02-21T10:28:13;15.20;72.20
46159;DHT22;74657;45.650;25.590;2024-02-21T10:30:37;14.30;71.70
46159;DHT22;74657;45.650;25.590;2024-02-21T10:33:01;12.80;74.40
46159;DHT22;74657;45.650;25.590;2024-02-21T10:35:28;12.30;78.60
46159;DHT22;74657;45.650;25.590;2024-02-21T10:37:52;12.40;79.80
46159;DHT22;74657;45.650;25.590;2024-02-21T10:40:17;12.50;80.70
46159;DHT22;74657;45.650;25.590;2024-02-21T10:42:41;12.80;80.30
46159;DHT22;74657;45.650;25.590;2024-02-21T10:45:07;16.50;73.40
46159;DHT22;74657;45.650;25.590;2024-02-21T10:47:37;18.50;69.00
46159;DHT22;74657;45.650;25.590;2024-02-21T10:50:05;20.70;65.10
46159;DHT22;74657;45.650;25.590;2024-02-21T10:52:38;21.30;61.40
46159;DHT22;74657;45.650;25.590;2024-02-21T10:55:12;20.40;60.70
46159;DHT22;74657;45.650;25.590;2024-02-21T10:57:39;20.70;63.20
46159;DHT22;74657;45.650;25.590;2024-02-21T11:00:05;23.30;59.80
46159;DHT22;74657;45.650;25.590;2024-02-21T11:02:30;26.50;54.40
46159;DHT22;74657;45.650;25.590;2024-02-21T11:04:55;28.40;51.90
46159;DHT22;74657;45.650;25.590;2024-02-21T11:07:20;29.10;48.60
46159;DHT22;74657;45.650;25.590;2024-02-21T11:09:51;29.90;47.70
46159;DHT22;74657;45.650;25.590;2024-02-21T11:12:20;31.60;46.10
46159;DHT22;74657;45.650;25.590;2024-02-21T11:14:44;32.20;44.60
46159;DHT22;74657;45.650;25.590;2024-02-21T11:17:15;32.00;44.30
46159;DHT22;74657;45.650;25.590;2024-02-21T11:19:39;30.70;44.10
46159;DHT22;74657;45.650;25.590;2024-02-21T11:22:02;29.60;44.60
46159;DHT22;74657;45.650;25.590;2024-02-21T11:24:39;27.80;46.30
46159;DHT22;74657;45.650;25.590;2024-02-21T11:27:14;26.50;46.70
46159;DHT22;74657;45.650;25.590;2024-02-21T11:29:42;25.60;47.80
46159;DHT22;74657;45.650;25.590;2024-02-21T11:32:06;26.60;46.50
46159;DHT22;74657;45.650;25.590;2024-02-21T11:34:32;27.70;45.80
46159;DHT22;74657;45.650;25.590;2024-02-21T11:36:55;28.00;45.30
46159;DHT22;74657;45.650;25.590;2024-02-21T11:39:23;25.80;46.10
46159;DHT22;74657;45.650;25.590;2024-02-21T11:42:00;22.50;49.00
46159;DHT22;74657;45.650;25.590;2024-02-21T11:44:23;20.20;52.90
46159;DHT22;74657;45.650;25.590;2024-02-21T11:46:47;19.20;56.10
46159;DHT22;74657;45.650;25.590;2024-02-21T11:49:11;21.00;53.00
46159;DHT22;74657;45.650;25.590;2024-02-21T11:51:35;22.70;51.00
46159;DHT22;74657;45.650;25.590;2024-02-21T11:53:58;23.10;49.00
46159;DHT22;74657;45.650;25.590;2024-02-21T11:56:22;23.20;48.50
46159;DHT22;74657;45.650;25.590;2024-02-21T11:58:48;23.70;47.90
46159;DHT22;74657;45.650;25.590;2024-02-21T12:01:11;24.00;46.80
46159;DHT22;74657;45.650;25.590;2024-02-21T12:03:35;24.00;47.80
46159;DHT22;74657;45.650;25.590;2024-02-21T12:05:59;23.60;48.20
46159;DHT22;74657;45.650;25.590;2024-02-21T12:08:22;22.80;49.30
46159;DHT22;74657;45.650;25.590;2024-02-21T12:10:46;22.00;50.00
46159;DHT22;74657;45.650;25.590;2024-02-21T12:13:13;21.30;50.50
46159;DHT22;74657;45.650;25.590;2024-02-21T12:15:38;19.70;53.20
46159;DHT22;74657;45.650;25.590;2024-02-21T12:18:02;18.40;55.40
46159;DHT22;74657;45.650;25.590;2024-02-21T12:20:26;17.80;55.50
46159;DHT22;74657;45.650;25.590;2024-02-21T12:22:50;17.50;55.60
46159;DHT22;74657;45.650;25.590;2024-02-21T12:25:16;17.40;56.90
46159;DHT22;74657;45.650;25.590;2024-02-21T12:27:42;17.50;57.50
46159;DHT22;74657;45.650;25.590;2024-02-21T12:30:06;17.50;56.50
46159;DHT22;74657;45.650;25.590;2024-02-21T12:32:32;17.10;56.10
46159;DHT22;74657;45.650;25.590;2024-02-21T12:34:55;17.00;58.80
46159;DHT22;74657;45.650;25.590;2024-02-21T12:37:21;16.90;58.70
46159;DHT22;74657;45.650;25.590;2024-02-21T12:39:45;17.00;57.90
46159;DHT22;74657;45.650;25.590;2024-02-21T12:42:09;16.80;59.90
46159;DHT22;74657;45.650;25.590;2024-02-21T12:44:33;16.70;60.00
46159;DHT22;74657;45.650;25.590;2024-02-21T12:46:57;16.50;59.60
46159;DHT22;74657;45.650;25.590;2024-02-21T12:49:23;16.00;60.50
46159;DHT22;74657;45.650;25.590;2024-02-21T12:51:46;15.60;61.60
46159;DHT22;74657;45.650;25.590;2024-02-21T12:54:09;15.20;61.90
46159;DHT22;74657;45.650;25.590;2024-02-21T12:56:32;15.00;62.80
46159;DHT22;74657;45.650;25.590;2024-02-21T12:58:56;14.70;63.20
46159;DHT22;74657;45.650;25.590;2024-02-21T13:01:19;14.40;62.90
46159;DHT22;74657;45.650;25.590;2024-02-21T13:03:43;13.90;63.50
46159;DHT22;74657;45.650;25.590;2024-02-21T13:06:09;13.50;66.10
46159;DHT22;74657;45.650;25.590;2024-02-21T13:08:33;13.30;66.10
46159;DHT22;74657;45.650;25.590;2024-02-21T13:10:57;13.10;66.90
46159;DHT22;74657;45.650;25.590;2024-02-21T13:13:20;12.90;67.30
46159;DHT22;74657;45.650;25.590;2024-02-21T13:15:44;12.80;68.30
46159;DHT22;74657;45.650;25.590;2024-02-21T13:18:07;12.80;68.50
46159;DHT22;74657;45.650;25.590;2024-02-21T13:20:31;12.60;69.50
46159;DHT22;74657;45.650;25.590;2024-02-21T13:22:56;12.50;69.90
46159;DHT22;74657;45.650;25.590;2024-02-21T13:25:20;12.30;70.20
46159;DHT22;74657;45.650;25.590;2024-02-21T13:27:44;12.10;70.00
46159;DHT22;74657;45.650;25.590;2024-02-21T13:30:08;11.90;71.20
46159;DHT22;74657;45.650;25.590;2024-02-21T13:32:32;11.80;72.10
46159;DHT22;74657;45.650;25.590;2024-02-21T13:34:55;11.70;72.00
46159;DHT22;74657;45.650;25.590;2024-02-21T13:37:21;11.70;72.60
46159;DHT22;74657;45.650;25.590;2024-02-21T13:39:46;11.80;71.90
46159;DHT22;74657;45.650;25.590;2024-02-21T13:42:09;12.00;72.20
46159;DHT22;74657;45.650;25.590;2024-02-21T13:44:32;11.90;70.60
46159;DHT22;74657;45.650;25.590;2024-02-21T13:46:56;12.00;71.60
46159;DHT22;74657;45.650;25.590;2024-02-21T13:49:19;12.10;71.10
46159;DHT22;74657;45.650;25.590;2024-02-21T13:51:42;12.00;71.50
46159;DHT22;74657;45.650;25.590;2024-02-21T13:54:06;11.90;72.10
46159;DHT22;74657;45.650;25.590;2024-02-21T13:56:32;11.80;71.50
46159;DHT22;74657;45.650;25.590;2024-02-21T13:58:57;11.70;71.80
46159;DHT22;74657;45.650;25.590;2024-02-21T14:01:22;11.40;72.60
46159;DHT22;74657;45.650;25.590;2024-02-21T14:03:45;11.10;72.70
46159;DHT22;74657;45.650;25.590;2024-02-21T14:06:09;10.70;74.80
46159;DHT22;74657;45.650;25.590;2024-02-21T14:08:33;10.50;76.50
46159;DHT22;74657;45.650;25.590;2024-02-21T14:10:57;10.20;77.90
46159;DHT22;74657;45.650;25.590;2024-02-21T14:13:23;10.00;78.60
46159;DHT22;74657;45.650;25.590;2024-02-21T14:15:47;9.70;79.00
46159;DHT22;74657;45.650;25.590;2024-02-21T14:18:11;9.40;80.20
46159;DHT22;74657;45.650;25.590;2024-02-21T14:20:35;9.20;80.70
46159;DHT22;74657;45.650;25.590;2024-02-21T14:22:59;9.10;82.60
46159;DHT22;74657;45.650;25.590;2024-02-21T14:25:22;8.90;83.20
46159;DHT22;74657;45.650;25.590;2024-02-21T14:27:46;8.80;84.30
46159;DHT22;74657;45.650;25.590;2024-02-21T14:30:11;8.70;85.40
46159;DHT22;74657;45.650;25.590;2024-02-21T14:32:35;8.60;85.10
46159;DHT22;74657;45.650;25.590;2024-02-21T14:34:58;8.60;85.50
46159;DHT22;74657;45.650;25.590;2024-02-21T14:37:26;8.50;86.50
46159;DHT22;74657;45.650;25.590;2024-02-21T14:39:49;8.50;86.80
46159;DHT22;74657;45.650;25.590;2024-02-21T14:42:13;8.50;88.00
46159;DHT22;74657;45.650;25.590;2024-02-21T14:44:35;8.50;87.50
46159;DHT22;74657;45.650;25.590;2024-02-21T14:47:00;8.60;85.00
46159;DHT22;74657;45.650;25.590;2024-02-21T14:49:25;8.60;86.60
46159;DHT22;74657;45.650;25.590;2024-02-21T14:51:50;8.60;88.40
46159;DHT22;74657;45.650;25.590;2024-02-21T14:54:14;8.60;89.60
46159;DHT22;74657;45.650;25.590;2024-02-21T14:56:37;8.60;89.20
46159;DHT22;74657;45.650;25.590;2024-02-21T14:59:00;8.60;89.30
46159;DHT22;74657;45.650;25.590;2024-02-21T15:01:38;8.60;90.00
46159;DHT22;74657;45.650;25.590;2024-02-21T15:04:03;8.50;90.00
46159;DHT22;74657;45.650;25.590;2024-02-21T15:06:26;8.50;90.30